RSC8EL GCLP-GCXO
Flight info
| Callsign | RSC8EL |
|---|---|
| Flight time | 0h 16m |
| Altitude | 12000 |
| Route | ECKOS DCT GDV DCT CANDE |
| Aircraft | AT76/M-SDFGIRY/S |
Departure
| Time | 2026-04-29 22:47 |
|---|---|
| Airport | Gran Canaria Airport (GCLP) |
Arrival
| Time | 2026-04-29 23:03 |
|---|---|
| Airport | Tenerife Norte-Ciudad de La Laguna Airport (GCXO) |
| Time | Latitude | Longitude | Altitude | Speed | Heading |
|---|---|---|---|---|---|
| 2026-04-29 22:47 | 28.05763 | -15.37983 | 4723 ft | 179 kts | 296° |
| 2026-04-29 22:47 | 28.06276 | -15.39249 | 5066 ft | 180 kts | 295° |
| 2026-04-29 22:47 | 28.06794 | -15.40548 | 5413 ft | 181 kts | 295° |
| 2026-04-29 22:47 | 28.07320 | -15.41850 | 5764 ft | 182 kts | 295° |
| 2026-04-29 22:48 | 28.07849 | -15.43159 | 6102 ft | 183 kts | 295° |
| 2026-04-29 22:48 | 28.08456 | -15.44428 | 6447 ft | 184 kts | 301° |
| 2026-04-29 22:48 | 28.09134 | -15.45660 | 6777 ft | 185 kts | 302° |
| 2026-04-29 22:48 | 28.09826 | -15.46887 | 7102 ft | 185 kts | 301° |
| 2026-04-29 22:49 | 28.10509 | -15.48125 | 7414 ft | 186 kts | 301° |
| 2026-04-29 22:49 | 28.11192 | -15.49373 | 7701 ft | 187 kts | 301° |
| 2026-04-29 22:49 | 28.11881 | -15.50633 | 7933 ft | 193 kts | 301° |
| 2026-04-29 22:49 | 28.12607 | -15.51968 | 7996 ft | 205 kts | 301° |
| 2026-04-29 22:50 | 28.13367 | -15.53373 | 8027 ft | 218 kts | 301° |
| 2026-04-29 22:50 | 28.14180 | -15.54867 | 8044 ft | 228 kts | 301° |
| 2026-04-29 22:50 | 28.15022 | -15.56425 | 8047 ft | 235 kts | 301° |
| 2026-04-29 22:50 | 28.15887 | -15.58025 | 8049 ft | 240 kts | 301° |
| 2026-04-29 22:51 | 28.16769 | -15.59657 | 8056 ft | 244 kts | 301° |
| 2026-04-29 22:51 | 28.17665 | -15.61311 | 8056 ft | 247 kts | 301° |
| 2026-04-29 22:51 | 28.19483 | -15.64671 | 8058 ft | 252 kts | 301° |
| 2026-04-29 22:52 | 28.20400 | -15.66370 | 8060 ft | 253 kts | 301° |
| 2026-04-29 22:52 | 28.21323 | -15.68075 | 8060 ft | 254 kts | 301° |
| 2026-04-29 22:52 | 28.22236 | -15.69764 | 8057 ft | 255 kts | 301° |
| 2026-04-29 22:52 | 28.23164 | -15.71481 | 8061 ft | 255 kts | 301° |
| 2026-04-29 22:53 | 28.24092 | -15.73202 | 8060 ft | 255 kts | 301° |
| 2026-04-29 22:53 | 28.25020 | -15.74920 | 8060 ft | 255 kts | 301° |
| 2026-04-29 22:53 | 28.25946 | -15.76637 | 8064 ft | 255 kts | 301° |
| 2026-04-29 22:53 | 28.26873 | -15.78357 | 8065 ft | 255 kts | 301° |
| 2026-04-29 22:54 | 28.27799 | -15.80075 | 8066 ft | 256 kts | 301° |
| 2026-04-29 22:54 | 28.28729 | -15.81796 | 8057 ft | 256 kts | 301° |
| 2026-04-29 22:54 | 28.29656 | -15.83516 | 8060 ft | 256 kts | 301° |
| 2026-04-29 22:54 | 28.30582 | -15.85237 | 8061 ft | 255 kts | 301° |
| 2026-04-29 22:55 | 28.31506 | -15.86956 | 8060 ft | 255 kts | 301° |
| 2026-04-29 22:55 | 28.32426 | -15.88679 | 8064 ft | 255 kts | 300° |
| 2026-04-29 22:55 | 28.33193 | -15.90460 | 8064 ft | 254 kts | 292° |
| 2026-04-29 22:55 | 28.33841 | -15.92325 | 8065 ft | 254 kts | 290° |
| 2026-04-29 22:56 | 28.34269 | -15.93589 | 8065 ft | 254 kts | 291° |
| 2026-04-29 22:56 | 28.35087 | -15.95972 | 8061 ft | 254 kts | 291° |
| 2026-04-29 22:56 | 28.35758 | -15.97833 | 8068 ft | 255 kts | 292° |
| 2026-04-29 22:56 | 28.36435 | -15.99690 | 8067 ft | 254 kts | 292° |
| 2026-04-29 22:57 | 28.37117 | -16.01558 | 7861 ft | 261 kts | 292° |
| 2026-04-29 22:57 | 28.37817 | -16.03474 | 7507 ft | 262 kts | 292° |
| 2026-04-29 22:57 | 28.38282 | -16.04740 | 7286 ft | 262 kts | 292° |
| 2026-04-29 22:57 | 28.38975 | -16.06638 | 6950 ft | 258 kts | 292° |
| 2026-04-29 22:58 | 28.39655 | -16.08508 | 6604 ft | 254 kts | 292° |
| 2026-04-29 22:58 | 28.40325 | -16.10357 | 6250 ft | 251 kts | 292° |
| 2026-04-29 22:58 | 28.40975 | -16.12185 | 5901 ft | 248 kts | 291° |
| 2026-04-29 22:58 | 28.41590 | -16.14006 | 5559 ft | 245 kts | 291° |
| 2026-04-29 22:59 | 28.42204 | -16.15815 | 5165 ft | 241 kts | 291° |
| 2026-04-29 22:59 | 28.42757 | -16.17498 | 4846 ft | 214 kts | 290° |
| 2026-04-29 22:59 | 28.43253 | -16.19026 | 4564 ft | 197 kts | 291° |
| 2026-04-29 22:59 | 28.43716 | -16.20417 | 4307 ft | 180 kts | 291° |
| 2026-04-29 23:00 | 28.44133 | -16.21673 | 4082 ft | 164 kts | 291° |
| 2026-04-29 23:00 | 28.44528 | -16.22860 | 3874 ft | 158 kts | 291° |
| 2026-04-29 23:00 | 28.44900 | -16.23994 | 3693 ft | 146 kts | 291° |
| 2026-04-29 23:00 | 28.45236 | -16.25016 | 3491 ft | 133 kts | 291° |
| 2026-04-29 23:01 | 28.45547 | -16.25971 | 3322 ft | 127 kts | 291° |
| 2026-04-29 23:01 | 28.45858 | -16.26902 | 3155 ft | 125 kts | 291° |
| 2026-04-29 23:01 | 28.46171 | -16.27826 | 2996 ft | 125 kts | 292° |
| 2026-04-29 23:01 | 28.46476 | -16.28735 | 2830 ft | 125 kts | 291° |
| 2026-04-29 23:02 | 28.46785 | -16.29660 | 2633 ft | 125 kts | 291° |
| 2026-04-29 23:02 | 28.47070 | -16.30574 | 2472 ft | 120 kts | 289° |
| 2026-04-29 23:02 | 28.47359 | -16.31446 | 2277 ft | 116 kts | 291° |
| 2026-04-29 23:02 | 28.47646 | -16.32303 | 2123 ft | 116 kts | 291° |
| 2026-04-29 23:03 | 28.47932 | -16.33143 | 2019 ft | 105 kts | 291° |
| 2026-04-29 23:03 | 28.48107 | -16.33671 | 2038 ft | 43 kts | 290° |
| 2026-04-29 23:03 | 28.48196 | -16.33937 | 2050 ft | 30 kts | 291° |
| 2026-04-29 23:03 | 28.48276 | -16.34112 | 2054 ft | 21 kts | 315° |
| 2026-04-29 23:04 | 28.48368 | -16.34191 | 2057 ft | 13 kts | 323° |
| 2026-04-29 23:04 | 28.48416 | -16.34256 | 2059 ft | 8 kts | 293° |
| 2026-04-29 23:04 | 28.48432 | -16.34307 | 2060 ft | 7 kts | 290° |
| 2026-04-29 23:04 | 28.48457 | -16.34381 | 2061 ft | 13 kts | 291° |
| 2026-04-29 23:05 | 28.48494 | -16.34490 | 2063 ft | 17 kts | 291° |
| 2026-04-29 23:05 | 28.48538 | -16.34619 | 2065 ft | 15 kts | 291° |
| 2026-04-29 23:05 | 28.48579 | -16.34702 | 2066 ft | 10 kts | 336° |
| 2026-04-29 23:05 | 28.48637 | -16.34676 | 2066 ft | 9 kts | 19° |
| 2026-04-29 23:06 | 28.48678 | -16.34659 | 2066 ft | 2 kts | 21° |
| 2026-04-29 23:06 | 28.48679 | -16.34658 | 2066 ft | 0 kts | 21° |